sensor_id;sensor_type;location;lat;lon;timestamp;P1;durP1;ratioP1;P2;durP2;ratioP2
57241;SDS011;43095;53.302;5.786;2022-11-21T00:02:14;21.55;;;14.95;;
57241;SDS011;43095;53.302;5.786;2022-11-21T00:04:42;19.73;;;14.13;;
57241;SDS011;43095;53.302;5.786;2022-11-21T00:07:09;23.30;;;15.57;;
57241;SDS011;43095;53.302;5.786;2022-11-21T00:09:39;20.17;;;14.90;;
57241;SDS011;43095;53.302;5.786;2022-11-21T00:12:10;20.00;;;14.07;;
57241;SDS011;43095;53.302;5.786;2022-11-21T00:14:37;22.40;;;15.35;;
57241;SDS011;43095;53.302;5.786;2022-11-21T00:17:08;24.17;;;15.38;;
57241;SDS011;43095;53.302;5.786;2022-11-21T00:19:36;20.88;;;15.35;;
57241;SDS011;43095;53.302;5.786;2022-11-21T00:22:03;28.85;;;14.93;;
57241;SDS011;43095;53.302;5.786;2022-11-21T00:24:31;25.90;;;15.88;;
57241;SDS011;43095;53.302;5.786;2022-11-21T00:26:58;22.27;;;16.45;;
57241;SDS011;43095;53.302;5.786;2022-11-21T00:29:28;21.75;;;14.93;;
57241;SDS011;43095;53.302;5.786;2022-11-21T00:32:01;22.20;;;15.40;;
57241;SDS011;43095;53.302;5.786;2022-11-21T00:34:31;21.67;;;16.30;;
57241;SDS011;43095;53.302;5.786;2022-11-21T00:37:06;24.75;;;17.10;;
57241;SDS011;43095;53.302;5.786;2022-11-21T00:39:44;23.23;;;16.42;;
57241;SDS011;43095;53.302;5.786;2022-11-21T00:42:12;22.23;;;16.00;;
57241;SDS011;43095;53.302;5.786;2022-11-21T00:44:42;24.73;;;16.73;;
57241;SDS011;43095;53.302;5.786;2022-11-21T00:47:12;25.67;;;16.48;;
57241;SDS011;43095;53.302;5.786;2022-11-21T00:49:40;22.42;;;14.73;;
57241;SDS011;43095;53.302;5.786;2022-11-21T00:52:09;21.20;;;15.27;;
57241;SDS011;43095;53.302;5.786;2022-11-21T00:54:36;20.52;;;14.82;;
57241;SDS011;43095;53.302;5.786;2022-11-21T00:57:07;19.30;;;14.80;;
57241;SDS011;43095;53.302;5.786;2022-11-21T00:59:37;21.80;;;15.07;;
57241;SDS011;43095;53.302;5.786;2022-11-21T01:02:05;22.08;;;15.40;;
57241;SDS011;43095;53.302;5.786;2022-11-21T01:04:35;21.45;;;14.55;;
57241;SDS011;43095;53.302;5.786;2022-11-21T01:07:02;20.33;;;15.25;;
57241;SDS011;43095;53.302;5.786;2022-11-21T01:09:30;22.60;;;16.02;;
57241;SDS011;43095;53.302;5.786;2022-11-21T01:11:57;20.95;;;14.35;;
57241;SDS011;43095;53.302;5.786;2022-11-21T01:14:29;19.85;;;14.15;;
57241;SDS011;43095;53.302;5.786;2022-11-21T01:17:07;19.88;;;15.00;;
57241;SDS011;43095;53.302;5.786;2022-11-21T01:19:35;20.23;;;13.50;;
57241;SDS011;43095;53.302;5.786;2022-11-21T01:22:02;21.02;;;15.43;;
57241;SDS011;43095;53.302;5.786;2022-11-21T01:24:29;20.40;;;14.30;;
57241;SDS011;43095;53.302;5.786;2022-11-21T01:27:00;25.17;;;17.75;;
57241;SDS011;43095;53.302;5.786;2022-11-21T01:29:27;21.75;;;16.52;;
57241;SDS011;43095;53.302;5.786;2022-11-21T01:31:56;24.35;;;16.65;;
57241;SDS011;43095;53.302;5.786;2022-11-21T01:34:27;28.27;;;18.38;;
57241;SDS011;43095;53.302;5.786;2022-11-21T01:36:55;23.77;;;16.65;;
57241;SDS011;43095;53.302;5.786;2022-11-21T01:39:23;24.20;;;16.70;;
57241;SDS011;43095;53.302;5.786;2022-11-21T01:41:50;24.88;;;17.38;;
57241;SDS011;43095;53.302;5.786;2022-11-21T01:44:22;25.50;;;17.83;;
57241;SDS011;43095;53.302;5.786;2022-11-21T01:46:52;30.02;;;18.60;;
57241;SDS011;43095;53.302;5.786;2022-11-21T01:49:24;24.65;;;16.38;;
57241;SDS011;43095;53.302;5.786;2022-11-21T01:52:01;25.25;;;17.52;;
57241;SDS011;43095;53.302;5.786;2022-11-21T01:59:56;29.40;;;19.02;;
57241;SDS011;43095;53.302;5.786;2022-11-21T02:02:43;28.23;;;17.55;;
57241;SDS011;43095;53.302;5.786;2022-11-21T02:05:18;30.35;;;17.33;;
57241;SDS011;43095;53.302;5.786;2022-11-21T02:07:56;30.92;;;18.45;;
57241;SDS011;43095;53.302;5.786;2022-11-21T02:12:56;29.05;;;19.05;;
57241;SDS011;43095;53.302;5.786;2022-11-21T02:15:26;31.40;;;19.88;;
57241;SDS011;43095;53.302;5.786;2022-11-21T02:17:55;26.17;;;18.52;;
57241;SDS011;43095;53.302;5.786;2022-11-21T02:20:26;28.33;;;18.85;;
57241;SDS011;43095;53.302;5.786;2022-11-21T02:23:00;27.15;;;18.40;;
57241;SDS011;43095;53.302;5.786;2022-11-21T02:25:33;30.08;;;18.45;;
57241;SDS011;43095;53.302;5.786;2022-11-21T02:28:04;27.35;;;17.58;;
57241;SDS011;43095;53.302;5.786;2022-11-21T02:30:38;28.35;;;18.30;;
57241;SDS011;43095;53.302;5.786;2022-11-21T02:33:11;27.38;;;17.48;;
57241;SDS011;43095;53.302;5.786;2022-11-21T02:35:39;28.05;;;19.15;;
57241;SDS011;43095;53.302;5.786;2022-11-21T02:40:50;32.83;;;20.83;;
57241;SDS011;43095;53.302;5.786;2022-11-21T02:46:30;32.90;;;20.65;;
57241;SDS011;43095;53.302;5.786;2022-11-21T02:49:02;27.63;;;19.15;;
57241;SDS011;43095;53.302;5.786;2022-11-21T02:51:32;32.90;;;19.45;;
57241;SDS011;43095;53.302;5.786;2022-11-21T02:54:00;30.67;;;18.77;;
57241;SDS011;43095;53.302;5.786;2022-11-21T02:56:29;25.48;;;17.98;;
57241;SDS011;43095;53.302;5.786;2022-11-21T02:58:57;30.30;;;20.40;;
57241;SDS011;43095;53.302;5.786;2022-11-21T03:01:25;29.83;;;19.38;;
57241;SDS011;43095;53.302;5.786;2022-11-21T03:03:52;31.75;;;21.13;;
57241;SDS011;43095;53.302;5.786;2022-11-21T03:06:20;30.00;;;20.60;;
57241;SDS011;43095;53.302;5.786;2022-11-21T03:08:47;30.75;;;20.25;;
57241;SDS011;43095;53.302;5.786;2022-11-21T03:11:16;31.70;;;19.42;;
57241;SDS011;43095;53.302;5.786;2022-11-21T03:13:46;29.00;;;18.52;;
57241;SDS011;43095;53.302;5.786;2022-11-21T03:16:15;28.27;;;17.88;;
57241;SDS011;43095;53.302;5.786;2022-11-21T03:18:45;26.73;;;18.80;;
57241;SDS011;43095;53.302;5.786;2022-11-21T03:21:12;28.25;;;16.90;;
57241;SDS011;43095;53.302;5.786;2022-11-21T03:23:40;28.85;;;19.15;;
57241;SDS011;43095;53.302;5.786;2022-11-21T03:26:09;31.77;;;19.15;;
57241;SDS011;43095;53.302;5.786;2022-11-21T03:28:36;29.75;;;19.75;;
57241;SDS011;43095;53.302;5.786;2022-11-21T03:31:04;28.05;;;18.65;;
57241;SDS011;43095;53.302;5.786;2022-11-21T03:33:31;26.73;;;19.27;;
57241;SDS011;43095;53.302;5.786;2022-11-21T03:35:59;29.73;;;18.63;;
57241;SDS011;43095;53.302;5.786;2022-11-21T03:38:27;31.83;;;21.65;;
57241;SDS011;43095;53.302;5.786;2022-11-21T03:40:54;32.25;;;19.92;;
57241;SDS011;43095;53.302;5.786;2022-11-21T03:43:22;34.78;;;22.08;;
57241;SDS011;43095;53.302;5.786;2022-11-21T03:45:49;32.20;;;20.88;;
57241;SDS011;43095;53.302;5.786;2022-11-21T03:48:16;33.83;;;21.75;;
57241;SDS011;43095;53.302;5.786;2022-11-21T03:50:43;30.08;;;20.05;;
57241;SDS011;43095;53.302;5.786;2022-11-21T03:53:11;31.40;;;20.48;;
57241;SDS011;43095;53.302;5.786;2022-11-21T03:55:38;33.15;;;21.10;;
57241;SDS011;43095;53.302;5.786;2022-11-21T03:58:06;35.38;;;20.20;;
57241;SDS011;43095;53.302;5.786;2022-11-21T04:00:33;34.85;;;21.10;;
57241;SDS011;43095;53.302;5.786;2022-11-21T04:03:00;35.45;;;22.30;;
57241;SDS011;43095;53.302;5.786;2022-11-21T04:05:28;33.72;;;22.15;;
57241;SDS011;43095;53.302;5.786;2022-11-21T04:07:55;33.28;;;20.27;;
57241;SDS011;43095;53.302;5.786;2022-11-21T04:10:22;37.47;;;22.63;;
57241;SDS011;43095;53.302;5.786;2022-11-21T04:12:49;39.13;;;23.98;;
57241;SDS011;43095;53.302;5.786;2022-11-21T04:15:16;33.92;;;21.52;;
57241;SDS011;43095;53.302;5.786;2022-11-21T04:17:44;33.42;;;22.08;;
57241;SDS011;43095;53.302;5.786;2022-11-21T04:20:11;35.60;;;22.10;;
57241;SDS011;43095;53.302;5.786;2022-11-21T04:22:39;35.22;;;23.10;;
57241;SDS011;43095;53.302;5.786;2022-11-21T04:25:06;30.65;;;19.13;;
57241;SDS011;43095;53.302;5.786;2022-11-21T04:27:33;32.05;;;21.90;;
57241;SDS011;43095;53.302;5.786;2022-11-21T04:30:01;32.78;;;21.00;;
57241;SDS011;43095;53.302;5.786;2022-11-21T04:32:28;35.00;;;22.23;;
57241;SDS011;43095;53.302;5.786;2022-11-21T04:34:56;35.92;;;21.90;;
57241;SDS011;43095;53.302;5.786;2022-11-21T04:37:23;31.48;;;20.13;;
57241;SDS011;43095;53.302;5.786;2022-11-21T04:39:51;33.97;;;20.88;;
57241;SDS011;43095;53.302;5.786;2022-11-21T04:42:18;33.67;;;21.20;;
57241;SDS011;43095;53.302;5.786;2022-11-21T04:44:48;37.10;;;22.75;;
57241;SDS011;43095;53.302;5.786;2022-11-21T04:47:15;37.90;;;22.77;;
57241;SDS011;43095;53.302;5.786;2022-11-21T04:49:42;34.22;;;22.02;;
57241;SDS011;43095;53.302;5.786;2022-11-21T04:52:09;34.13;;;22.40;;
57241;SDS011;43095;53.302;5.786;2022-11-21T04:54:37;34.78;;;21.38;;
57241;SDS011;43095;53.302;5.786;2022-11-21T04:57:05;36.13;;;22.13;;
57241;SDS011;43095;53.302;5.786;2022-11-21T04:59:32;38.63;;;23.95;;
57241;SDS011;43095;53.302;5.786;2022-11-21T05:02:01;36.03;;;22.80;;
57241;SDS011;43095;53.302;5.786;2022-11-21T05:04:29;37.40;;;22.20;;
57241;SDS011;43095;53.302;5.786;2022-11-21T05:06:56;36.67;;;22.38;;
57241;SDS011;43095;53.302;5.786;2022-11-21T05:09:24;37.72;;;23.10;;
57241;SDS011;43095;53.302;5.786;2022-11-21T05:11:51;37.00;;;20.95;;
57241;SDS011;43095;53.302;5.786;2022-11-21T05:14:37;36.28;;;22.25;;
57241;SDS011;43095;53.302;5.786;2022-11-21T05:17:04;37.58;;;23.40;;
57241;SDS011;43095;53.302;5.786;2022-11-21T05:19:31;36.60;;;22.77;;
57241;SDS011;43095;53.302;5.786;2022-11-21T05:21:58;37.53;;;22.45;;
57241;SDS011;43095;53.302;5.786;2022-11-21T05:24:26;37.28;;;22.67;;
57241;SDS011;43095;53.302;5.786;2022-11-21T05:26:53;41.72;;;22.80;;
57241;SDS011;43095;53.302;5.786;2022-11-21T05:29:21;39.42;;;23.30;;
57241;SDS011;43095;53.302;5.786;2022-11-21T05:31:53;39.38;;;23.00;;
57241;SDS011;43095;53.302;5.786;2022-11-21T05:34:21;37.58;;;22.23;;
57241;SDS011;43095;53.302;5.786;2022-11-21T05:36:48;39.28;;;24.17;;
57241;SDS011;43095;53.302;5.786;2022-11-21T05:39:22;40.78;;;23.05;;
57241;SDS011;43095;53.302;5.786;2022-11-21T05:41:50;41.17;;;24.85;;
57241;SDS011;43095;53.302;5.786;2022-11-21T05:44:23;41.03;;;23.48;;
57241;SDS011;43095;53.302;5.786;2022-11-21T05:46:51;40.42;;;23.27;;
57241;SDS011;43095;53.302;5.786;2022-11-21T05:49:18;45.80;;;26.30;;
57241;SDS011;43095;53.302;5.786;2022-11-21T05:51:45;40.63;;;24.55;;
57241;SDS011;43095;53.302;5.786;2022-11-21T05:54:13;42.28;;;25.33;;
57241;SDS011;43095;53.302;5.786;2022-11-21T05:56:41;43.33;;;25.38;;
57241;SDS011;43095;53.302;5.786;2022-11-21T05:59:09;45.35;;;26.35;;
57241;SDS011;43095;53.302;5.786;2022-11-21T06:01:37;48.25;;;27.60;;
57241;SDS011;43095;53.302;5.786;2022-11-21T06:04:23;42.03;;;25.45;;
57241;SDS011;43095;53.302;5.786;2022-11-21T06:06:50;42.28;;;25.05;;
57241;SDS011;43095;53.302;5.786;2022-11-21T06:09:17;49.72;;;26.25;;
57241;SDS011;43095;53.302;5.786;2022-11-21T06:11:45;49.40;;;27.85;;
57241;SDS011;43095;53.302;5.786;2022-11-21T06:14:12;44.10;;;27.77;;
57241;SDS011;43095;53.302;5.786;2022-11-21T06:16:43;48.63;;;27.35;;
57241;SDS011;43095;53.302;5.786;2022-11-21T06:19:26;45.38;;;26.38;;
57241;SDS011;43095;53.302;5.786;2022-11-21T06:21:53;48.00;;;28.17;;
57241;SDS011;43095;53.302;5.786;2022-11-21T06:24:20;45.65;;;26.48;;
57241;SDS011;43095;53.302;5.786;2022-11-21T06:26:48;48.60;;;28.48;;
57241;SDS011;43095;53.302;5.786;2022-11-21T06:29:15;47.40;;;27.70;;
57241;SDS011;43095;53.302;5.786;2022-11-21T06:31:42;42.45;;;26.35;;
57241;SDS011;43095;53.302;5.786;2022-11-21T06:34:09;45.78;;;27.08;;
57241;SDS011;43095;53.302;5.786;2022-11-21T06:36:37;48.45;;;27.00;;
57241;SDS011;43095;53.302;5.786;2022-11-21T06:39:04;49.08;;;25.98;;
57241;SDS011;43095;53.302;5.786;2022-11-21T06:41:32;48.03;;;26.73;;
57241;SDS011;43095;53.302;5.786;2022-11-21T06:43:59;48.33;;;27.00;;
57241;SDS011;43095;53.302;5.786;2022-11-21T06:46:27;47.13;;;27.67;;
57241;SDS011;43095;53.302;5.786;2022-11-21T06:48:54;47.45;;;27.08;;
57241;SDS011;43095;53.302;5.786;2022-11-21T06:51:22;51.70;;;27.88;;
57241;SDS011;43095;53.302;5.786;2022-11-21T06:53:54;48.67;;;27.33;;
57241;SDS011;43095;53.302;5.786;2022-11-21T06:56:23;54.88;;;29.00;;
57241;SDS011;43095;53.302;5.786;2022-11-21T06:58:52;53.60;;;29.27;;
57241;SDS011;43095;53.302;5.786;2022-11-21T07:01:20;57.80;;;31.30;;
57241;SDS011;43095;53.302;5.786;2022-11-21T07:03:48;52.80;;;27.45;;
57241;SDS011;43095;53.302;5.786;2022-11-21T07:06:15;49.63;;;27.83;;
57241;SDS011;43095;53.302;5.786;2022-11-21T07:08:42;54.63;;;29.08;;
57241;SDS011;43095;53.302;5.786;2022-11-21T07:11:11;50.85;;;28.10;;
57241;SDS011;43095;53.302;5.786;2022-11-21T07:13:56;113.30;;;34.35;;
57241;SDS011;43095;53.302;5.786;2022-11-21T07:16:23;78.75;;;30.65;;
57241;SDS011;43095;53.302;5.786;2022-11-21T07:18:52;64.63;;;29.80;;
57241;SDS011;43095;53.302;5.786;2022-11-21T07:21:19;82.38;;;32.28;;
57241;SDS011;43095;53.302;5.786;2022-11-21T07:23:46;62.75;;;29.90;;
57241;SDS011;43095;53.302;5.786;2022-11-21T07:26:14;59.00;;;28.08;;
57241;SDS011;43095;53.302;5.786;2022-11-21T07:28:41;61.25;;;28.92;;
57241;SDS011;43095;53.302;5.786;2022-11-21T07:31:09;225.88;;;38.05;;
57241;SDS011;43095;53.302;5.786;2022-11-21T07:33:40;69.82;;;27.38;;
57241;SDS011;43095;53.302;5.786;2022-11-21T07:36:10;89.82;;;28.23;;
57241;SDS011;43095;53.302;5.786;2022-11-21T07:38:37;89.75;;;26.33;;
57241;SDS011;43095;53.302;5.786;2022-11-21T07:41:07;97.55;;;27.13;;
57241;SDS011;43095;53.302;5.786;2022-11-21T07:43:35;85.40;;;26.92;;
57241;SDS011;43095;53.302;5.786;2022-11-21T07:46:03;59.63;;;27.05;;
57241;SDS011;43095;53.302;5.786;2022-11-21T07:48:30;57.28;;;28.08;;
57241;SDS011;43095;53.302;5.786;2022-11-21T07:50:57;134.15;;;31.27;;
57241;SDS011;43095;53.302;5.786;2022-11-21T07:53:24;93.10;;;29.48;;
57241;SDS011;43095;53.302;5.786;2022-11-21T07:55:52;56.78;;;27.25;;
57241;SDS011;43095;53.302;5.786;2022-11-21T07:58:19;62.22;;;28.70;;
57241;SDS011;43095;53.302;5.786;2022-11-21T08:00:46;106.85;;;32.50;;
57241;SDS011;43095;53.302;5.786;2022-11-21T08:03:13;55.47;;;27.92;;
57241;SDS011;43095;53.302;5.786;2022-11-21T08:05:41;69.70;;;30.65;;
57241;SDS011;43095;53.302;5.786;2022-11-21T08:08:10;59.05;;;28.42;;
57241;SDS011;43095;53.302;5.786;2022-11-21T08:10:40;66.50;;;29.60;;
57241;SDS011;43095;53.302;5.786;2022-11-21T08:13:11;72.15;;;30.90;;
57241;SDS011;43095;53.302;5.786;2022-11-21T08:15:39;77.72;;;32.17;;
57241;SDS011;43095;53.302;5.786;2022-11-21T08:18:16;65.55;;;29.02;;
57241;SDS011;43095;53.302;5.786;2022-11-21T08:20:46;56.08;;;28.15;;
57241;SDS011;43095;53.302;5.786;2022-11-21T08:23:14;59.53;;;30.75;;
57241;SDS011;43095;53.302;5.786;2022-11-21T08:25:41;71.05;;;32.70;;
57241;SDS011;43095;53.302;5.786;2022-11-21T08:28:12;74.88;;;33.72;;
57241;SDS011;43095;53.302;5.786;2022-11-21T08:30:41;65.18;;;31.90;;
57241;SDS011;43095;53.302;5.786;2022-11-21T08:33:10;69.72;;;32.42;;
57241;SDS011;43095;53.302;5.786;2022-11-21T08:35:37;69.72;;;33.50;;
57241;SDS011;43095;53.302;5.786;2022-11-21T08:38:05;63.00;;;31.40;;
57241;SDS011;43095;53.302;5.786;2022-11-21T08:40:34;55.20;;;30.48;;
57241;SDS011;43095;53.302;5.786;2022-11-21T08:43:05;55.65;;;30.75;;
57241;SDS011;43095;53.302;5.786;2022-11-21T08:45:35;55.88;;;31.27;;
57241;SDS011;43095;53.302;5.786;2022-11-21T08:48:03;58.10;;;31.00;;
57241;SDS011;43095;53.302;5.786;2022-11-21T08:50:35;48.53;;;27.80;;
57241;SDS011;43095;53.302;5.786;2022-11-21T08:53:02;46.17;;;26.45;;
57241;SDS011;43095;53.302;5.786;2022-11-21T08:55:30;47.30;;;27.27;;
57241;SDS011;43095;53.302;5.786;2022-11-21T08:57:57;49.65;;;28.33;;
57241;SDS011;43095;53.302;5.786;2022-11-21T09:00:25;50.88;;;28.35;;
57241;SDS011;43095;53.302;5.786;2022-11-21T09:02:53;48.92;;;28.98;;
57241;SDS011;43095;53.302;5.786;2022-11-21T09:05:21;49.70;;;29.95;;
57241;SDS011;43095;53.302;5.786;2022-11-21T09:07:54;50.60;;;28.25;;
57241;SDS011;43095;53.302;5.786;2022-11-21T09:10:23;59.53;;;30.20;;
57241;SDS011;43095;53.302;5.786;2022-11-21T09:12:52;54.58;;;30.38;;
57241;SDS011;43095;53.302;5.786;2022-11-21T09:15:23;46.88;;;27.17;;
57241;SDS011;43095;53.302;5.786;2022-11-21T09:18:09;49.63;;;26.63;;
57241;SDS011;43095;53.302;5.786;2022-11-21T09:20:40;58.17;;;29.92;;
57241;SDS011;43095;53.302;5.786;2022-11-21T09:23:10;44.60;;;25.10;;
57241;SDS011;43095;53.302;5.786;2022-11-21T09:25:39;48.03;;;26.02;;
57241;SDS011;43095;53.302;5.786;2022-11-21T09:28:08;45.55;;;25.13;;
57241;SDS011;43095;53.302;5.786;2022-11-21T09:30:39;45.63;;;26.27;;
57241;SDS011;43095;53.302;5.786;2022-11-21T09:33:14;42.13;;;25.08;;
57241;SDS011;43095;53.302;5.786;2022-11-21T09:35:45;39.95;;;22.85;;
57241;SDS011;43095;53.302;5.786;2022-11-21T09:38:13;41.72;;;23.80;;
57241;SDS011;43095;53.302;5.786;2022-11-21T09:40:47;43.22;;;24.52;;
57241;SDS011;43095;53.302;5.786;2022-11-21T09:45:55;27.13;;;17.33;;
57241;SDS011;43095;53.302;5.786;2022-11-21T09:48:33;22.75;;;15.70;;
57241;SDS011;43095;53.302;5.786;2022-11-21T09:51:10;26.65;;;16.85;;
57241;SDS011;43095;53.302;5.786;2022-11-21T09:53:50;26.35;;;16.15;;
57241;SDS011;43095;53.302;5.786;2022-11-21T09:56:29;24.75;;;16.42;;
57241;SDS011;43095;53.302;5.786;2022-11-21T09:59:07;30.10;;;18.98;;
57241;SDS011;43095;53.302;5.786;2022-11-21T10:01:47;30.55;;;18.90;;
57241;SDS011;43095;53.302;5.786;2022-11-21T10:04:15;25.63;;;16.65;;
57241;SDS011;43095;53.302;5.786;2022-11-21T10:10:11;27.48;;;17.40;;
57241;SDS011;43095;53.302;5.786;2022-11-21T10:18:30;33.65;;;18.42;;
57241;SDS011;43095;53.302;5.786;2022-11-21T10:23:59;27.65;;;17.75;;
57241;SDS011;43095;53.302;5.786;2022-11-21T10:26:52;24.85;;;15.57;;
57241;SDS011;43095;53.302;5.786;2022-11-21T10:29:37;22.73;;;15.50;;
57241;SDS011;43095;53.302;5.786;2022-11-21T10:34:52;22.42;;;14.93;;
57241;SDS011;43095;53.302;5.786;2022-11-21T10:40:09;20.58;;;13.82;;
57241;SDS011;43095;53.302;5.786;2022-11-21T10:42:43;22.63;;;15.30;;
57241;SDS011;43095;53.302;5.786;2022-11-21T10:45:18;21.08;;;13.63;;
57241;SDS011;43095;53.302;5.786;2022-11-21T10:47:47;20.88;;;14.82;;
57241;SDS011;43095;53.302;5.786;2022-11-21T10:55:58;20.95;;;14.43;;
57241;SDS011;43095;53.302;5.786;2022-11-21T10:58:39;20.45;;;13.77;;
57241;SDS011;43095;53.302;5.786;2022-11-21T11:04:03;18.80;;;13.20;;
57241;SDS011;43095;53.302;5.786;2022-11-21T11:06:55;17.15;;;12.77;;
57241;SDS011;43095;53.302;5.786;2022-11-21T11:09:32;19.35;;;13.52;;
57241;SDS011;43095;53.302;5.786;2022-11-21T11:15:16;19.40;;;13.43;;
57241;SDS011;43095;53.302;5.786;2022-11-21T11:20:34;16.50;;;11.98;;
57241;SDS011;43095;53.302;5.786;2022-11-21T11:23:37;17.17;;;12.20;;
57241;SDS011;43095;53.302;5.786;2022-11-21T11:25:58;18.20;;;12.18;;
57241;SDS011;43095;53.302;5.786;2022-11-21T11:28:32;16.23;;;11.40;;
57241;SDS011;43095;53.302;5.786;2022-11-21T11:31:01;16.38;;;11.82;;
57241;SDS011;43095;53.302;5.786;2022-11-21T11:33:30;16.20;;;12.35;;
57241;SDS011;43095;53.302;5.786;2022-11-21T11:36:13;16.58;;;11.95;;
57241;SDS011;43095;53.302;5.786;2022-11-21T11:38:50;16.60;;;11.98;;
57241;SDS011;43095;53.302;5.786;2022-11-21T11:47:49;16.77;;;11.35;;
57241;SDS011;43095;53.302;5.786;2022-11-21T11:50:26;15.13;;;11.95;;
57241;SDS011;43095;53.302;5.786;2022-11-21T11:53:03;15.93;;;11.88;;
57241;SDS011;43095;53.302;5.786;2022-11-21T11:58:18;15.60;;;11.57;;
57241;SDS011;43095;53.302;5.786;2022-11-21T12:03:43;15.32;;;11.38;;
57241;SDS011;43095;53.302;5.786;2022-11-21T12:11:55;15.05;;;11.00;;
57241;SDS011;43095;53.302;5.786;2022-11-21T12:14:55;16.05;;;12.15;;
57241;SDS011;43095;53.302;5.786;2022-11-21T12:23:32;15.30;;;11.18;;
57241;SDS011;43095;53.302;5.786;2022-11-21T12:26:18;13.35;;;9.63;;
57241;SDS011;43095;53.302;5.786;2022-11-21T12:45:49;13.90;;;9.73;;
57241;SDS011;43095;53.302;5.786;2022-11-21T12:48:35;13.87;;;10.23;;
57241;SDS011;43095;53.302;5.786;2022-11-21T12:55:00;14.70;;;11.40;;
57241;SDS011;43095;53.302;5.786;2022-11-21T13:00:24;13.70;;;10.27;;
57241;SDS011;43095;53.302;5.786;2022-11-21T13:06:11;15.77;;;11.00;;
57241;SDS011;43095;53.302;5.786;2022-11-21T13:08:42;15.70;;;11.27;;
57241;SDS011;43095;53.302;5.786;2022-11-21T13:14:26;14.32;;;11.00;;
57241;SDS011;43095;53.302;5.786;2022-11-21T13:17:03;14.90;;;11.47;;
57241;SDS011;43095;53.302;5.786;2022-11-21T13:19:50;19.35;;;12.77;;
57241;SDS011;43095;53.302;5.786;2022-11-21T13:30:47;18.92;;;14.15;;
57241;SDS011;43095;53.302;5.786;2022-11-21T13:36:11;17.98;;;13.15;;
57241;SDS011;43095;53.302;5.786;2022-11-21T13:46:57;19.73;;;14.57;;
57241;SDS011;43095;53.302;5.786;2022-11-21T13:49:43;19.42;;;14.30;;
57241;SDS011;43095;53.302;5.786;2022-11-21T14:04:30;24.08;;;15.57;;
57241;SDS011;43095;53.302;5.786;2022-11-21T14:09:56;25.77;;;16.88;;
57241;SDS011;43095;53.302;5.786;2022-11-21T14:12:33;23.92;;;17.38;;
57241;SDS011;43095;53.302;5.786;2022-11-21T14:15:13;23.20;;;16.30;;
57241;SDS011;43095;53.302;5.786;2022-11-21T14:17:52;21.75;;;15.50;;
57241;SDS011;43095;53.302;5.786;2022-11-21T14:20:30;21.88;;;15.57;;
57241;SDS011;43095;53.302;5.786;2022-11-21T14:23:22;20.30;;;14.80;;
57241;SDS011;43095;53.302;5.786;2022-11-21T14:26:00;23.42;;;16.08;;
57241;SDS011;43095;53.302;5.786;2022-11-21T14:28:36;24.00;;;17.05;;
57241;SDS011;43095;53.302;5.786;2022-11-21T14:31:07;24.85;;;17.23;;
57241;SDS011;43095;53.302;5.786;2022-11-21T14:33:43;23.55;;;15.95;;
57241;SDS011;43095;53.302;5.786;2022-11-21T14:36:23;25.88;;;17.23;;
57241;SDS011;43095;53.302;5.786;2022-11-21T14:39:05;24.50;;;16.58;;
57241;SDS011;43095;53.302;5.786;2022-11-21T14:41:58;26.08;;;16.73;;
57241;SDS011;43095;53.302;5.786;2022-11-21T14:44:33;23.98;;;16.38;;
57241;SDS011;43095;53.302;5.786;2022-11-21T14:47:14;27.90;;;17.45;;
57241;SDS011;43095;53.302;5.786;2022-11-21T14:49:54;22.80;;;15.18;;
57241;SDS011;43095;53.302;5.786;2022-11-21T14:52:30;25.90;;;16.48;;
57241;SDS011;43095;53.302;5.786;2022-11-21T14:55:00;28.77;;;17.58;;
57241;SDS011;43095;53.302;5.786;2022-11-21T14:57:50;28.05;;;17.70;;
57241;SDS011;43095;53.302;5.786;2022-11-21T15:00:19;29.55;;;18.38;;
57241;SDS011;43095;53.302;5.786;2022-11-21T15:03:32;29.27;;;17.65;;
57241;SDS011;43095;53.302;5.786;2022-11-21T15:06:03;27.60;;;17.77;;
57241;SDS011;43095;53.302;5.786;2022-11-21T15:08:54;29.00;;;18.45;;
57241;SDS011;43095;53.302;5.786;2022-11-21T15:14:33;33.03;;;18.75;;
57241;SDS011;43095;53.302;5.786;2022-11-21T15:17:16;28.60;;;17.08;;
57241;SDS011;43095;53.302;5.786;2022-11-21T15:20:36;28.38;;;16.48;;
57241;SDS011;43095;53.302;5.786;2022-11-21T15:22:42;33.25;;;16.92;;
57241;SDS011;43095;53.302;5.786;2022-11-21T15:25:17;36.88;;;16.85;;
57241;SDS011;43095;53.302;5.786;2022-11-21T15:37:04;32.97;;;18.67;;
57241;SDS011;43095;53.302;5.786;2022-11-21T15:39:43;34.08;;;18.48;;
57241;SDS011;43095;53.302;5.786;2022-11-21T15:44:59;35.17;;;18.85;;
57241;SDS011;43095;53.302;5.786;2022-11-21T15:47:46;32.58;;;18.63;;
57241;SDS011;43095;53.302;5.786;2022-11-21T15:50:14;37.88;;;19.77;;
57241;SDS011;43095;53.302;5.786;2022-11-21T15:52:46;36.10;;;18.77;;
57241;SDS011;43095;53.302;5.786;2022-11-21T15:55:19;48.05;;;20.63;;
57241;SDS011;43095;53.302;5.786;2022-11-21T15:57:58;34.60;;;19.20;;
57241;SDS011;43095;53.302;5.786;2022-11-21T16:00:27;40.33;;;17.92;;
57241;SDS011;43095;53.302;5.786;2022-11-21T16:03:07;45.53;;;19.02;;
57241;SDS011;43095;53.302;5.786;2022-11-21T16:05:35;40.17;;;19.45;;
57241;SDS011;43095;53.302;5.786;2022-11-21T16:08:06;43.67;;;19.00;;
57241;SDS011;43095;53.302;5.786;2022-11-21T16:10:36;46.97;;;22.00;;
57241;SDS011;43095;53.302;5.786;2022-11-21T16:13:03;49.67;;;21.63;;
57241;SDS011;43095;53.302;5.786;2022-11-21T16:15:38;59.70;;;20.67;;
57241;SDS011;43095;53.302;5.786;2022-11-21T16:18:08;40.22;;;19.42;;
57241;SDS011;43095;53.302;5.786;2022-11-21T16:20:35;47.50;;;19.60;;
57241;SDS011;43095;53.302;5.786;2022-11-21T16:23:03;41.20;;;18.30;;
57241;SDS011;43095;53.302;5.786;2022-11-21T16:25:35;48.47;;;20.77;;
57241;SDS011;43095;53.302;5.786;2022-11-21T16:28:02;45.72;;;18.85;;
57241;SDS011;43095;53.302;5.786;2022-11-21T16:30:33;40.17;;;18.25;;
57241;SDS011;43095;53.302;5.786;2022-11-21T16:33:04;60.00;;;22.25;;
57241;SDS011;43095;53.302;5.786;2022-11-21T16:35:34;51.15;;;21.92;;
57241;SDS011;43095;53.302;5.786;2022-11-21T16:38:07;61.75;;;21.02;;
57241;SDS011;43095;53.302;5.786;2022-11-21T16:40:36;40.35;;;18.95;;
57241;SDS011;43095;53.302;5.786;2022-11-21T16:43:08;39.83;;;20.00;;
57241;SDS011;43095;53.302;5.786;2022-11-21T16:45:38;42.30;;;18.85;;
57241;SDS011;43095;53.302;5.786;2022-11-21T16:48:10;46.88;;;21.77;;
57241;SDS011;43095;53.302;5.786;2022-11-21T16:50:38;54.30;;;20.98;;
57241;SDS011;43095;53.302;5.786;2022-11-21T16:53:08;41.80;;;19.30;;
57241;SDS011;43095;53.302;5.786;2022-11-21T16:55:36;51.08;;;21.55;;
57241;SDS011;43095;53.302;5.786;2022-11-21T16:58:08;43.63;;;20.70;;
57241;SDS011;43095;53.302;5.786;2022-11-21T17:00:36;57.83;;;21.48;;
57241;SDS011;43095;53.302;5.786;2022-11-21T17:03:05;56.17;;;22.17;;
57241;SDS011;43095;53.302;5.786;2022-11-21T17:05:32;45.80;;;20.58;;
57241;SDS011;43095;53.302;5.786;2022-11-21T17:08:00;65.25;;;24.02;;
57241;SDS011;43095;53.302;5.786;2022-11-21T17:10:31;67.25;;;23.05;;
57241;SDS011;43095;53.302;5.786;2022-11-21T17:13:02;51.72;;;23.92;;
57241;SDS011;43095;53.302;5.786;2022-11-21T17:15:32;55.78;;;23.13;;
57241;SDS011;43095;53.302;5.786;2022-11-21T17:17:59;72.15;;;23.60;;